createdAt,value
2019-01-20T17:40:31.448Z,0.06
2019-01-20T17:43:03.016Z,0.29
2019-01-20T17:45:35.737Z,0.29
2019-01-20T17:48:06.454Z,0.22
2019-01-20T17:50:38.923Z,0.13
2019-01-20T17:53:10.732Z,0.06
2019-01-20T17:55:41.407Z,-0.02
2019-01-20T17:58:11.881Z,-0.07
2019-01-20T18:00:45.599Z,-0.09
2019-01-20T18:03:16.661Z,-0.14
2019-01-20T18:05:47.086Z,-0.17
2019-01-20T18:08:17.518Z,-0.20
2019-01-20T18:10:47.853Z,-0.24
2019-01-20T18:13:18.505Z,-0.26
2019-01-20T18:15:54.438Z,-0.30
2019-01-20T18:18:21.328Z,-0.35
2019-01-20T18:20:51.845Z,-0.39
2019-01-20T18:23:22.523Z,-0.41
2019-01-20T18:25:52.858Z,-0.45
2019-01-20T18:28:23.495Z,-0.46
2019-01-20T18:30:53.909Z,-0.51
2019-01-20T18:33:24.510Z,-0.53
2019-01-20T18:35:54.876Z,-0.56
2019-01-20T18:38:25.475Z,-0.63
2019-01-20T18:40:55.855Z,-0.63
2019-01-20T18:43:26.589Z,-0.65
2019-01-20T18:46:01.621Z,-0.66
2019-01-20T18:48:29.438Z,-0.75
2019-01-20T18:50:59.827Z,-0.75
2019-01-20T18:53:30.787Z,-0.79
2019-01-20T18:56:01.575Z,-0.85
2019-01-20T18:58:31.854Z,-0.90
2019-01-20T19:01:03.155Z,-0.93
2019-01-20T19:03:33.470Z,-0.94
2019-01-20T19:06:04.057Z,-0.97
2019-01-20T19:08:34.599Z,-1.02
2019-01-20T19:11:04.901Z,-1.04
2019-01-20T19:13:35.427Z,-1.07
2019-01-20T19:16:09.017Z,-1.11
2019-01-20T19:18:38.372Z,-1.13
2019-01-20T19:21:09.843Z,-1.15
2019-01-20T19:23:40.457Z,-1.19
2019-01-20T19:26:10.835Z,-1.20
2019-01-20T19:28:41.443Z,-1.22
2019-01-20T19:31:11.799Z,-1.26
2019-01-20T19:33:42.403Z,-1.30
2019-01-20T19:36:12.928Z,-1.32
2019-01-20T19:38:43.602Z,-1.34
2019-01-20T19:41:15.055Z,-1.37
2019-01-20T19:43:46.524Z,-1.41
2019-01-20T19:46:16.851Z,-1.42
2019-01-20T19:48:47.786Z,-1.44
2019-01-20T19:51:18.407Z,-1.48
2019-01-20T19:53:48.732Z,-1.52
2019-01-20T19:56:19.350Z,-1.55
2019-01-20T19:58:49.677Z,-1.57
2019-01-20T20:01:20.478Z,-1.59
2019-01-20T20:03:50.800Z,-1.61
2019-01-20T20:06:21.449Z,-1.62
2019-01-20T20:08:51.845Z,-1.65
2019-01-20T20:11:22.375Z,-1.69
2019-01-20T20:13:52.872Z,-1.72
2019-01-20T20:16:24.850Z,-1.77
2019-01-20T20:18:55.506Z,-1.77
2019-01-20T20:21:25.942Z,-1.78
2019-01-20T20:23:56.461Z,-1.80
2019-01-20T20:26:26.905Z,-1.83
2019-01-20T20:28:57.671Z,-1.86
2019-01-20T20:31:28.400Z,-1.89
2019-01-20T20:33:59.157Z,-1.93
2019-01-20T20:36:29.737Z,-1.96
2019-01-20T20:39:00.378Z,-1.98
2019-01-20T20:41:30.826Z,-2.01
2019-01-20T20:44:01.549Z,-2.04
2019-01-20T20:46:32.079Z,-2.07
2019-01-20T20:49:02.747Z,-2.14
2019-01-20T20:51:33.478Z,-2.14
2019-01-20T20:54:06.393Z,-2.16
2019-01-20T20:56:36.738Z,-2.19
2019-01-20T20:59:07.515Z,-2.24
2019-01-20T21:01:38.362Z,-2.26
2019-01-20T21:04:08.961Z,-2.26
2019-01-20T21:06:39.627Z,-2.27
2019-01-20T21:09:11.634Z,-2.29
2019-01-20T21:11:42.039Z,-2.30
2019-01-20T21:14:12.678Z,-2.32
2019-01-20T21:16:43.572Z,-2.35
2019-01-20T21:19:13.924Z,-2.39
2019-01-20T21:21:44.536Z,-2.43
2019-01-20T21:24:14.916Z,-2.46
2019-01-20T21:26:45.774Z,-2.49
2019-01-20T21:29:16.603Z,-2.52
2019-01-20T21:31:47.018Z,-2.54
2019-01-20T21:34:17.322Z,-2.58
2019-01-20T21:36:47.762Z,-2.61
2019-01-20T21:39:18.290Z,-2.64
2019-01-20T21:41:48.853Z,-2.67
2019-01-20T21:44:19.457Z,-2.67
2019-01-20T21:46:50.015Z,-2.69
2019-01-20T21:49:20.665Z,-2.69
2019-01-20T21:51:51.305Z,-2.71
2019-01-20T21:54:21.686Z,-2.71
2019-01-20T21:56:59.666Z,-2.73
2019-01-20T21:59:30.048Z,-2.71
2019-01-20T22:02:00.449Z,-2.72
2019-01-20T22:04:30.823Z,-2.72
2019-01-20T22:07:01.535Z,-2.76
2019-01-20T22:09:31.830Z,-2.77
2019-01-20T22:12:03.010Z,-2.82
2019-01-20T22:14:33.464Z,-2.84
2019-01-20T22:17:03.774Z,-2.86
2019-01-20T22:19:34.459Z,-2.89
2019-01-20T22:22:04.853Z,-2.92
2019-01-20T22:24:35.589Z,-2.92
2019-01-20T22:27:08.061Z,-2.95
2019-01-20T22:29:38.573Z,-2.95
2019-01-20T22:32:08.909Z,-2.98
2019-01-20T22:34:39.481Z,-3.00
2019-01-20T22:37:09.886Z,-3.01
2019-01-20T22:39:40.518Z,-3.03
2019-01-20T22:42:10.825Z,-3.03
2019-01-20T22:44:41.399Z,-3.05
2019-01-20T22:47:11.819Z,-3.07
2019-01-20T22:49:42.506Z,-3.07
2019-01-20T22:52:12.867Z,-3.08
2019-01-20T22:54:43.361Z,-3.10
2019-01-20T22:57:13.788Z,-3.09
2019-01-20T22:59:44.393Z,-3.12
2019-01-20T23:02:14.857Z,-3.12
2019-01-20T23:04:45.403Z,-3.08
2019-01-20T23:07:16.168Z,-3.10
2019-01-20T23:09:46.600Z,-3.10
2019-01-20T23:12:16.828Z,-3.08
2019-01-20T23:14:47.559Z,-3.08
2019-01-20T23:17:17.893Z,-3.07
2019-01-20T23:19:48.397Z,-3.06
2019-01-20T23:22:18.866Z,-3.03
2019-01-20T23:24:49.400Z,-3.02
2019-01-20T23:27:19.730Z,-3.01
2019-01-20T23:29:50.402Z,-2.99
2019-01-20T23:32:20.776Z,-2.96
2019-01-20T23:34:51.483Z,-2.96
2019-01-20T23:37:22.110Z,-2.94
2019-01-20T23:39:52.613Z,-2.91
2019-01-20T23:42:22.896Z,-2.91
2019-01-20T23:44:53.359Z,-2.90
2019-01-20T23:47:23.694Z,-2.89
2019-01-20T23:49:54.225Z,-2.87
2019-01-20T23:52:24.783Z,-2.84
2019-01-20T23:54:55.427Z,-2.84
2019-01-20T23:57:25.777Z,-2.83
2019-01-20T23:59:56.469Z,-2.81
